Tropical Cyclones
[Index]
Main Index Home Page Stock Weather Photos Extreme Storms Discussion Storm News and Storm Chasing Reports Tropical Cyclones / Hurricanes / Typhoons Weather Data and Links Wild Fires / Bushfires Weather Observation Techniques Weather Picture Catalogue Tornado Pictures and Reports Stock Video Footage and DVDs for sale
Season 2009-2010 Tropical Cyclone MAGDA Track Map
Season 2009-2010 Summaries: [BoM-AU] [JTWC-AU] [JTWC-SIO] [JTWC-SPAC] [JTWC-SH]
<<- Previous TC | JTWC 2009-2010 Season | Next TC ->>

click for intensity scale information  Lat/long Grid: Show Hide

 Date Labels: Show Hide

Joint Typhoon Warning Centre Cyclone Data

Name: MAGDA

19 Jan 2010 00:00 UTC to 23 Jan 2010 06:00 UTC

    date/time    lat    long     hPa   cat  kts
2010-01-19 00   12.1   123.4    1010         15          
2010-01-19 06   11.7   123.0    1007         20          
2010-01-19 12   11.9   122.5    1004         25          
2010-01-19 18   12.1   122.3    1002         25          
2010-01-20 00   12.3   122.1    1000         30          
2010-01-20 06   12.6   122.1     996         35          
2010-01-20 12   12.9   122.4     993    1    40          
2010-01-20 18   13.2   122.7     985    1    50          
2010-01-21 00   13.7   123.2     978    2    60          
2010-01-21 00   13.7   123.2     978    2    60          
2010-01-21 06   14.3   123.5     974    2    65          
2010-01-21 06   14.3   123.5     974    2    65          
2010-01-21 12   14.6   124.1     978    2    60          
2010-01-21 12   14.6   124.1     978    2    60          
2010-01-21 18   15.2   124.4     978    2    60          
2010-01-21 18   15.2   124.4     978    2    60          
2010-01-22 00   16.0   124.6     978    2    60          
2010-01-22 00   16.0   124.6     978    2    60          
2010-01-22 06   16.7   124.5     982    2    55          
2010-01-22 12   17.5   124.4     993    1    40          
2010-01-22 18   18.3   124.1    1000         30          
2010-01-23 00   18.4   124.0    1004         25          
2010-01-23 06   18.5   123.9    1010         15          
Winds are 1-min average.

Tropical cyclone tracks developed by Michael Bath using data from the Joint Typhoon Warning Centre Best Tracks and Google Maps.


[Australian Severe Weather index] [Copyright Notice] [Email Contacts] [Search This Site] [Privacy Policy]
Document: tropical_cyclone_magda.htm Updated: 28 June 2017